OCN41Y LEPA-EDDF
Flight info
| Callsign | OCN41Y |
|---|---|
| Flight time | 1h 46m |
| Altitude | 40000 |
| Route | MEROS DCT LAPIT DCT CHELY/N0460F320 DCT LUMAS DCT MAXIR DCT LUSOL DCT BODRU DCT OKTET DCT IRMAR DCT KINES DCT VANAS DCT MOBLO DCT UBIMA DCT SOSAL DCT KORED DCT BERSU N871 DITON/N0463F390 DCT LADOL/N0465F400 T163 EMPAX EMPAX5B |
| Aircraft | A333/H-SDE3GHIJ2J3J5M1RVWXY/LB2D1 |
Departure
| Time | 2026-05-05 17:46 |
|---|---|
| Airport | Palma de Mallorca Airport (LEPA) |
Arrival
| Time | 2026-05-05 19:32 |
|---|---|
| Airport | Frankfurt Main Airport (EDDF) |
| Time | Latitude | Longitude | Altitude | Speed | Heading |
|---|---|---|---|---|---|
| 2026-05-05 17:15 | 39.55409 | 2.73178 | 27 ft | 0 kts | 17° |
| 2026-05-05 17:39 | 39.55415 | 2.73183 | 27 ft | 3 kts | 31° |
| 2026-05-05 17:39 | 39.55419 | 2.73190 | 27 ft | 1 kts | 60° |
| 2026-05-05 17:40 | 39.55417 | 2.73217 | 28 ft | 5 kts | 106° |
| 2026-05-05 17:40 | 39.55400 | 2.73292 | 29 ft | 13 kts | 101° |
| 2026-05-05 17:40 | 39.55432 | 2.73422 | 33 ft | 16 kts | 59° |
| 2026-05-05 17:40 | 39.55492 | 2.73547 | 33 ft | 15 kts | 52° |
| 2026-05-05 17:41 | 39.55569 | 2.73536 | 31 ft | 12 kts | 332° |
| 2026-05-05 17:41 | 39.55649 | 2.73525 | 29 ft | 12 kts | 53° |
| 2026-05-05 17:41 | 39.55704 | 2.73615 | 28 ft | 12 kts | 53° |
| 2026-05-05 17:41 | 39.55753 | 2.73712 | 28 ft | 12 kts | 58° |
| 2026-05-05 17:42 | 39.55805 | 2.73821 | 29 ft | 15 kts | 59° |
| 2026-05-05 17:42 | 39.55861 | 2.73939 | 31 ft | 14 kts | 59° |
| 2026-05-05 17:42 | 39.55915 | 2.74054 | 30 ft | 15 kts | 59° |
| 2026-05-05 17:42 | 39.55969 | 2.74167 | 31 ft | 14 kts | 59° |
| 2026-05-05 17:43 | 39.56020 | 2.74277 | 31 ft | 14 kts | 59° |
| 2026-05-05 17:43 | 39.56073 | 2.74389 | 29 ft | 15 kts | 59° |
| 2026-05-05 17:43 | 39.56162 | 2.74446 | 27 ft | 15 kts | 345° |
| 2026-05-05 17:43 | 39.56243 | 2.74357 | 25 ft | 15 kts | 286° |
| 2026-05-05 17:44 | 39.56211 | 2.74236 | 26 ft | 13 kts | 241° |
| 2026-05-05 17:44 | 39.56205 | 2.74221 | 26 ft | 0 kts | 241° |
| 2026-05-05 17:44 | 39.56202 | 2.74215 | 26 ft | 1 kts | 238° |
| 2026-05-05 17:44 | 39.56186 | 2.74180 | 26 ft | 17 kts | 238° |
| 2026-05-05 17:45 | 39.56030 | 2.73854 | 26 ft | 73 kts | 239° |
| 2026-05-05 17:45 | 39.55639 | 2.73027 | 26 ft | 141 kts | 238° |
| 2026-05-05 17:45 | 39.55030 | 2.71733 | 146 ft | 185 kts | 238° |
| 2026-05-05 17:45 | 39.54378 | 2.70418 | 575 ft | 158 kts | 234° |
| 2026-05-05 17:46 | 39.53713 | 2.69226 | 956 ft | 169 kts | 234° |
| 2026-05-05 17:46 | 39.53077 | 2.67971 | 1539 ft | 164 kts | 239° |
| 2026-05-05 17:46 | 39.52475 | 2.66736 | 1992 ft | 168 kts | 238° |
| 2026-05-05 17:46 | 39.51814 | 2.65404 | 2313 ft | 181 kts | 238° |
| 2026-05-05 17:47 | 39.51108 | 2.63990 | 2611 ft | 195 kts | 238° |
| 2026-05-05 17:47 | 39.50338 | 2.62454 | 2871 ft | 215 kts | 238° |
| 2026-05-05 17:47 | 39.49486 | 2.60792 | 3468 ft | 226 kts | 233° |
| 2026-05-05 17:47 | 39.48322 | 2.59444 | 4249 ft | 230 kts | 213° |
| 2026-05-05 17:48 | 39.46870 | 2.58497 | 4940 ft | 237 kts | 210° |
| 2026-05-05 17:48 | 39.45340 | 2.57483 | 5486 ft | 251 kts | 210° |
| 2026-05-05 17:48 | 39.43658 | 2.56506 | 6103 ft | 266 kts | 198° |
| 2026-05-05 17:48 | 39.41743 | 2.56481 | 6805 ft | 283 kts | 170° |
| 2026-05-05 17:49 | 39.39907 | 2.57639 | 7690 ft | 292 kts | 145° |
| 2026-05-05 17:49 | 39.38518 | 2.59599 | 8596 ft | 295 kts | 130° |
| 2026-05-05 17:49 | 39.37300 | 2.61725 | 9470 ft | 293 kts | 134° |
| 2026-05-05 17:49 | 39.35799 | 2.63604 | 10168 ft | 295 kts | 146° |
| 2026-05-05 17:50 | 39.34172 | 2.65454 | 10630 ft | 313 kts | 142° |
| 2026-05-05 17:50 | 39.32506 | 2.67450 | 11054 ft | 329 kts | 142° |
| 2026-05-05 17:50 | 39.30746 | 2.69607 | 11489 ft | 347 kts | 141° |
| 2026-05-05 17:50 | 39.29130 | 2.72129 | 11775 ft | 373 kts | 127° |
| 2026-05-05 17:51 | 39.28076 | 2.75381 | 12079 ft | 399 kts | 107° |
| 2026-05-05 17:51 | 39.27887 | 2.79060 | 12782 ft | 407 kts | 90° |
| 2026-05-05 17:51 | 39.28006 | 2.82702 | 13586 ft | 408 kts | 90° |
| 2026-05-05 17:51 | 39.28150 | 2.86341 | 14273 ft | 412 kts | 90° |
| 2026-05-05 17:52 | 39.28290 | 2.90067 | 14937 ft | 416 kts | 90° |
| 2026-05-05 17:52 | 39.28609 | 2.93803 | 15426 ft | 427 kts | 79° |
| 2026-05-05 17:52 | 39.29621 | 2.97452 | 15957 ft | 435 kts | 64° |
| 2026-05-05 17:52 | 39.31162 | 3.00784 | 16589 ft | 437 kts | 54° |
| 2026-05-05 17:53 | 39.32882 | 3.04027 | 17222 ft | 441 kts | 56° |
| 2026-05-05 17:53 | 39.34512 | 3.07424 | 17751 ft | 446 kts | 59° |
| 2026-05-05 17:53 | 39.36066 | 3.10865 | 18333 ft | 450 kts | 59° |
| 2026-05-05 17:53 | 39.37652 | 3.14361 | 18895 ft | 454 kts | 58° |
| 2026-05-05 17:54 | 39.39259 | 3.17849 | 19473 ft | 456 kts | 58° |
| 2026-05-05 17:54 | 39.40926 | 3.21393 | 19946 ft | 462 kts | 58° |
| 2026-05-05 17:54 | 39.42519 | 3.25129 | 19992 ft | 476 kts | 61° |
| 2026-05-05 17:54 | 39.44194 | 3.28984 | 19986 ft | 472 kts | 59° |
| 2026-05-05 17:55 | 39.45865 | 3.32601 | 19990 ft | 465 kts | 58° |
| 2026-05-05 17:55 | 39.47517 | 3.36187 | 20033 ft | 463 kts | 58° |
| 2026-05-05 17:55 | 39.49252 | 3.39906 | 20330 ft | 469 kts | 58° |
| 2026-05-05 17:55 | 39.50999 | 3.43620 | 20978 ft | 469 kts | 58° |
| 2026-05-05 17:56 | 39.52707 | 3.47337 | 21431 ft | 473 kts | 58° |
| 2026-05-05 17:56 | 39.54460 | 3.51162 | 21891 ft | 477 kts | 59° |
| 2026-05-05 17:56 | 39.56148 | 3.54853 | 22315 ft | 481 kts | 59° |
| 2026-05-05 17:56 | 39.58099 | 3.58462 | 22688 ft | 484 kts | 50° |
| 2026-05-05 17:57 | 39.60507 | 3.61545 | 23101 ft | 482 kts | 34° |
| 2026-05-05 17:57 | 39.63466 | 3.63682 | 23517 ft | 477 kts | 18° |
| 2026-05-05 17:57 | 39.66617 | 3.65376 | 23945 ft | 480 kts | 18° |
| 2026-05-05 17:57 | 39.69753 | 3.67058 | 24334 ft | 484 kts | 18° |
| 2026-05-05 17:58 | 39.72912 | 3.68750 | 24727 ft | 487 kts | 18° |
| 2026-05-05 17:58 | 39.76121 | 3.70473 | 25177 ft | 489 kts | 18° |
| 2026-05-05 17:58 | 39.79377 | 3.72220 | 25490 ft | 494 kts | 18° |
| 2026-05-05 17:58 | 39.82708 | 3.74009 | 25898 ft | 497 kts | 18° |
| 2026-05-05 17:59 | 39.85946 | 3.75752 | 26227 ft | 501 kts | 18° |
| 2026-05-05 17:59 | 39.89230 | 3.77520 | 26618 ft | 503 kts | 18° |
| 2026-05-05 17:59 | 39.92574 | 3.79324 | 26977 ft | 507 kts | 18° |
| 2026-05-05 17:59 | 39.95949 | 3.81146 | 27303 ft | 511 kts | 18° |
| 2026-05-05 18:00 | 39.99234 | 3.82921 | 27724 ft | 512 kts | 18° |
| 2026-05-05 18:00 | 40.02546 | 3.84719 | 28018 ft | 517 kts | 18° |
| 2026-05-05 18:00 | 40.05997 | 3.86646 | 28345 ft | 521 kts | 19° |
| 2026-05-05 18:00 | 40.09413 | 3.88573 | 28700 ft | 523 kts | 19° |
| 2026-05-05 18:01 | 40.12841 | 3.90506 | 28988 ft | 526 kts | 19° |
| 2026-05-05 18:01 | 40.16284 | 3.92455 | 29297 ft | 528 kts | 19° |
| 2026-05-05 18:01 | 40.19764 | 3.94423 | 29719 ft | 528 kts | 19° |
| 2026-05-05 18:01 | 40.23182 | 3.96360 | 30112 ft | 528 kts | 19° |
| 2026-05-05 18:02 | 40.26624 | 3.98311 | 30494 ft | 529 kts | 19° |
| 2026-05-05 18:02 | 40.30034 | 4.00248 | 30922 ft | 528 kts | 19° |
| 2026-05-05 18:02 | 40.33391 | 4.02157 | 31454 ft | 526 kts | 19° |
| 2026-05-05 18:02 | 40.36783 | 4.04087 | 31719 ft | 529 kts | 19° |
| 2026-05-05 18:03 | 40.40196 | 4.06032 | 32138 ft | 528 kts | 19° |
| 2026-05-05 18:03 | 40.43545 | 4.07941 | 32578 ft | 527 kts | 19° |
| 2026-05-05 18:03 | 40.46892 | 4.09854 | 32968 ft | 527 kts | 19° |
| 2026-05-05 18:03 | 40.50306 | 4.11804 | 33326 ft | 527 kts | 19° |
| 2026-05-05 18:04 | 40.53675 | 4.13731 | 33660 ft | 528 kts | 19° |
| 2026-05-05 18:04 | 40.57086 | 4.15687 | 33987 ft | 529 kts | 19° |
| 2026-05-05 18:04 | 40.60438 | 4.17609 | 34369 ft | 528 kts | 19° |
| 2026-05-05 18:04 | 40.63825 | 4.19555 | 34698 ft | 527 kts | 19° |
| 2026-05-05 18:05 | 40.67144 | 4.21462 | 35059 ft | 526 kts | 19° |
| 2026-05-05 18:05 | 40.70488 | 4.23385 | 35418 ft | 524 kts | 19° |
| 2026-05-05 18:05 | 40.73835 | 4.25313 | 35678 ft | 524 kts | 19° |
| 2026-05-05 18:05 | 40.77169 | 4.27237 | 35965 ft | 523 kts | 19° |
| 2026-05-05 18:06 | 40.80502 | 4.29161 | 36285 ft | 522 kts | 19° |
| 2026-05-05 18:06 | 40.81592 | 4.29790 | 36418 ft | 521 kts | 19° |
| 2026-05-05 18:06 | 40.87123 | 4.32988 | 36954 ft | 520 kts | 19° |
| 2026-05-05 18:06 | 40.90416 | 4.34896 | 37274 ft | 520 kts | 19° |
| 2026-05-05 18:07 | 40.93697 | 4.36798 | 37584 ft | 519 kts | 19° |
| 2026-05-05 18:07 | 40.97013 | 4.38722 | 37896 ft | 518 kts | 19° |
| 2026-05-05 18:07 | 41.00314 | 4.40641 | 38044 ft | 519 kts | 19° |
| 2026-05-05 18:07 | 41.03585 | 4.42544 | 38208 ft | 520 kts | 19° |
| 2026-05-05 18:08 | 41.06897 | 4.44472 | 38349 ft | 520 kts | 19° |
| 2026-05-05 18:08 | 41.10192 | 4.46392 | 38503 ft | 520 kts | 19° |
| 2026-05-05 18:08 | 41.13514 | 4.48334 | 38650 ft | 520 kts | 19° |
| 2026-05-05 18:08 | 41.16787 | 4.50244 | 38789 ft | 519 kts | 19° |
| 2026-05-05 18:09 | 41.20115 | 4.52193 | 38941 ft | 519 kts | 19° |
| 2026-05-05 18:09 | 41.23414 | 4.54123 | 39076 ft | 518 kts | 19° |
| 2026-05-05 18:09 | 41.26678 | 4.56039 | 39210 ft | 517 kts | 19° |
| 2026-05-05 18:09 | 41.29968 | 4.57968 | 39337 ft | 517 kts | 19° |
| 2026-05-05 18:10 | 41.33241 | 4.59891 | 39474 ft | 516 kts | 19° |
| 2026-05-05 18:10 | 41.36547 | 4.61836 | 39631 ft | 515 kts | 19° |
| 2026-05-05 18:10 | 41.39783 | 4.63741 | 39729 ft | 514 kts | 19° |
| 2026-05-05 18:10 | 41.43061 | 4.65673 | 39838 ft | 513 kts | 20° |
| 2026-05-05 18:11 | 41.46332 | 4.67604 | 39881 ft | 514 kts | 19° |
| 2026-05-05 18:11 | 41.53009 | 4.71551 | 39862 ft | 517 kts | 20° |
| 2026-05-05 18:12 | 41.59798 | 4.75572 | 39863 ft | 519 kts | 20° |
| 2026-05-05 18:12 | 41.66590 | 4.79607 | 39867 ft | 520 kts | 20° |
| 2026-05-05 18:13 | 41.73412 | 4.83668 | 39915 ft | 521 kts | 19° |
| 2026-05-05 18:13 | 41.80281 | 4.87764 | 39890 ft | 522 kts | 20° |
| 2026-05-05 18:14 | 41.87166 | 4.91880 | 39882 ft | 523 kts | 19° |
| 2026-05-05 18:14 | 41.93808 | 4.95860 | 39871 ft | 523 kts | 20° |
| 2026-05-05 18:15 | 42.00446 | 4.99849 | 39868 ft | 524 kts | 20° |
| 2026-05-05 18:15 | 42.07051 | 5.03826 | 39898 ft | 522 kts | 19° |
| 2026-05-05 18:16 | 42.13646 | 5.07807 | 39889 ft | 520 kts | 20° |
| 2026-05-05 18:16 | 42.20241 | 5.11794 | 39872 ft | 521 kts | 20° |
| 2026-05-05 18:17 | 42.26852 | 5.15805 | 39869 ft | 522 kts | 20° |
| 2026-05-05 18:17 | 42.33477 | 5.19832 | 39887 ft | 523 kts | 20° |
| 2026-05-05 18:18 | 42.40167 | 5.23906 | 39916 ft | 523 kts | 20° |
| 2026-05-05 18:18 | 42.46782 | 5.27946 | 39890 ft | 523 kts | 20° |
| 2026-05-05 18:19 | 42.53403 | 5.32000 | 39912 ft | 523 kts | 20° |
| 2026-05-05 18:19 | 42.60058 | 5.36080 | 39936 ft | 523 kts | 20° |
| 2026-05-05 18:20 | 42.66683 | 5.40157 | 39906 ft | 524 kts | 20° |
| 2026-05-05 18:20 | 42.73290 | 5.44227 | 39929 ft | 525 kts | 20° |
| 2026-05-05 18:21 | 42.79927 | 5.48328 | 39910 ft | 524 kts | 20° |
| 2026-05-05 18:21 | 42.86570 | 5.52442 | 39900 ft | 524 kts | 20° |
| 2026-05-05 18:22 | 42.93174 | 5.56541 | 39934 ft | 524 kts | 20° |
| 2026-05-05 18:22 | 42.99793 | 5.60659 | 39928 ft | 524 kts | 20° |
| 2026-05-05 18:23 | 43.06404 | 5.64783 | 39918 ft | 524 kts | 21° |
| 2026-05-05 18:23 | 43.13012 | 5.68915 | 39902 ft | 524 kts | 21° |
| 2026-05-05 18:24 | 43.19641 | 5.73069 | 39885 ft | 523 kts | 21° |
| 2026-05-05 18:24 | 43.26249 | 5.77220 | 39889 ft | 523 kts | 21° |
| 2026-05-05 18:25 | 43.32820 | 5.81357 | 39919 ft | 522 kts | 21° |
| 2026-05-05 18:25 | 43.39383 | 5.85499 | 39908 ft | 522 kts | 21° |
| 2026-05-05 18:26 | 43.45970 | 5.89669 | 39907 ft | 521 kts | 21° |
| 2026-05-05 18:26 | 43.52570 | 5.93854 | 39899 ft | 522 kts | 21° |
| 2026-05-05 18:27 | 43.59129 | 5.98023 | 39897 ft | 522 kts | 21° |
| 2026-05-05 18:27 | 43.65718 | 6.02221 | 39887 ft | 522 kts | 22° |
| 2026-05-05 18:28 | 43.75559 | 6.08514 | 39908 ft | 521 kts | 21° |
| 2026-05-05 18:28 | 43.82077 | 6.12692 | 39908 ft | 521 kts | 21° |
| 2026-05-05 18:29 | 43.88643 | 6.16915 | 39933 ft | 521 kts | 21° |
| 2026-05-05 18:29 | 43.95230 | 6.21155 | 39934 ft | 521 kts | 22° |
| 2026-05-05 18:30 | 44.01773 | 6.25383 | 39919 ft | 522 kts | 22° |
| 2026-05-05 18:30 | 44.08353 | 6.29643 | 39937 ft | 522 kts | 22° |
| 2026-05-05 18:31 | 44.14891 | 6.33887 | 39939 ft | 521 kts | 22° |
| 2026-05-05 18:31 | 44.21454 | 6.38164 | 39943 ft | 520 kts | 23° |
| 2026-05-05 18:32 | 44.27902 | 6.42580 | 39952 ft | 517 kts | 17° |
| 2026-05-05 18:32 | 44.31345 | 6.43823 | 39970 ft | 509 kts | 4° |
| 2026-05-05 18:32 | 44.34849 | 6.44139 | 39985 ft | 503 kts | 356° |
| 2026-05-05 18:33 | 44.41848 | 6.45133 | 39967 ft | 508 kts | 4° |
| 2026-05-05 18:33 | 44.48843 | 6.46477 | 39944 ft | 509 kts | 4° |
| 2026-05-05 18:34 | 44.55832 | 6.47842 | 39944 ft | 509 kts | 4° |
| 2026-05-05 18:34 | 44.62823 | 6.49214 | 39970 ft | 509 kts | 4° |
| 2026-05-05 18:35 | 44.69819 | 6.50589 | 39959 ft | 509 kts | 4° |
| 2026-05-05 18:35 | 44.76819 | 6.51969 | 39964 ft | 510 kts | 4° |
| 2026-05-05 18:36 | 44.83836 | 6.53355 | 39975 ft | 509 kts | 4° |
| 2026-05-05 18:36 | 44.90816 | 6.54737 | 39956 ft | 510 kts | 5° |
| 2026-05-05 18:37 | 44.97828 | 6.56130 | 39941 ft | 510 kts | 5° |
| 2026-05-05 18:37 | 45.04835 | 6.57525 | 39957 ft | 510 kts | 4° |
| 2026-05-05 18:38 | 45.11855 | 6.58924 | 39954 ft | 510 kts | 4° |
| 2026-05-05 18:38 | 45.18877 | 6.60330 | 39927 ft | 509 kts | 4° |
| 2026-05-05 18:39 | 45.25886 | 6.61736 | 39918 ft | 509 kts | 5° |
| 2026-05-05 18:39 | 45.32931 | 6.63150 | 39929 ft | 509 kts | 5° |
| 2026-05-05 18:40 | 45.39961 | 6.64569 | 39939 ft | 508 kts | 5° |
| 2026-05-05 18:40 | 45.47057 | 6.66002 | 39922 ft | 508 kts | 5° |
| 2026-05-05 18:41 | 45.54096 | 6.67429 | 39925 ft | 507 kts | 6° |
| 2026-05-05 18:41 | 45.61146 | 6.68860 | 39919 ft | 507 kts | 6° |
| 2026-05-05 18:42 | 45.68257 | 6.70308 | 39915 ft | 508 kts | 6° |
| 2026-05-05 18:42 | 45.75366 | 6.71759 | 39908 ft | 508 kts | 6° |
| 2026-05-05 18:43 | 45.82406 | 6.73200 | 39918 ft | 508 kts | 6° |
| 2026-05-05 18:43 | 45.89411 | 6.74635 | 39909 ft | 508 kts | 6° |
| 2026-05-05 18:44 | 45.96503 | 6.76094 | 39908 ft | 508 kts | 6° |
| 2026-05-05 18:44 | 46.03510 | 6.77541 | 39916 ft | 508 kts | 6° |
| 2026-05-05 18:45 | 46.10523 | 6.78989 | 39925 ft | 508 kts | 6° |
| 2026-05-05 18:45 | 46.17588 | 6.80454 | 39935 ft | 508 kts | 6° |
| 2026-05-05 18:46 | 46.24527 | 6.81895 | 39936 ft | 508 kts | 6° |
| 2026-05-05 18:46 | 46.31545 | 6.83357 | 39943 ft | 508 kts | 6° |
| 2026-05-05 18:47 | 46.38535 | 6.84818 | 39925 ft | 508 kts | 6° |
| 2026-05-05 18:47 | 46.45540 | 6.86285 | 39913 ft | 508 kts | 6° |
| 2026-05-05 18:48 | 46.52488 | 6.88131 | 39917 ft | 509 kts | 17° |
| 2026-05-05 18:48 | 46.55702 | 6.90197 | 39934 ft | 510 kts | 30° |
| 2026-05-05 18:48 | 46.58599 | 6.93134 | 39938 ft | 510 kts | 41° |
| 2026-05-05 18:49 | 46.61042 | 6.96866 | 39924 ft | 509 kts | 54° |
| 2026-05-05 18:49 | 46.63030 | 7.01085 | 39943 ft | 508 kts | 56° |
| 2026-05-05 18:49 | 46.67376 | 7.09242 | 39925 ft | 510 kts | 52° |
| 2026-05-05 18:50 | 46.71852 | 7.17364 | 39899 ft | 511 kts | 52° |
| 2026-05-05 18:50 | 46.76307 | 7.25455 | 39912 ft | 512 kts | 52° |
| 2026-05-05 18:51 | 46.80729 | 7.33505 | 39905 ft | 512 kts | 52° |
| 2026-05-05 18:51 | 46.85216 | 7.41700 | 39898 ft | 513 kts | 52° |
| 2026-05-05 18:52 | 46.89636 | 7.49811 | 39896 ft | 513 kts | 52° |
| 2026-05-05 18:52 | 46.94051 | 7.57937 | 39901 ft | 513 kts | 52° |
| 2026-05-05 18:53 | 46.98511 | 7.66169 | 39906 ft | 513 kts | 52° |
| 2026-05-05 18:53 | 47.02925 | 7.74341 | 39903 ft | 512 kts | 52° |
| 2026-05-05 18:54 | 47.07335 | 7.82532 | 39891 ft | 512 kts | 53° |
| 2026-05-05 18:54 | 47.11759 | 7.90770 | 39885 ft | 512 kts | 53° |
| 2026-05-05 18:55 | 47.15801 | 7.99308 | 39904 ft | 510 kts | 60° |
| 2026-05-05 18:55 | 47.19559 | 8.08174 | 39889 ft | 511 kts | 59° |
| 2026-05-05 18:56 | 47.23320 | 8.17017 | 39884 ft | 511 kts | 59° |
| 2026-05-05 18:56 | 47.27088 | 8.25907 | 39887 ft | 511 kts | 59° |
| 2026-05-05 18:57 | 47.31589 | 8.33944 | 39895 ft | 510 kts | 39° |
| 2026-05-05 18:57 | 47.34585 | 8.36900 | 39895 ft | 509 kts | 26° |
| 2026-05-05 18:57 | 47.37899 | 8.39001 | 39898 ft | 508 kts | 20° |
| 2026-05-05 18:58 | 47.44455 | 8.43395 | 39878 ft | 509 kts | 24° |
| 2026-05-05 18:58 | 47.50944 | 8.47982 | 39878 ft | 509 kts | 25° |
| 2026-05-05 18:59 | 47.57339 | 8.52528 | 39883 ft | 509 kts | 25° |
| 2026-05-05 18:59 | 47.63753 | 8.57104 | 39892 ft | 510 kts | 25° |
| 2026-05-05 19:00 | 47.70215 | 8.61725 | 39888 ft | 510 kts | 25° |
| 2026-05-05 19:00 | 47.76590 | 8.66297 | 39885 ft | 510 kts | 26° |
| 2026-05-05 19:01 | 47.83076 | 8.70961 | 39889 ft | 510 kts | 26° |
| 2026-05-05 19:01 | 47.89584 | 8.75655 | 39881 ft | 509 kts | 26° |
| 2026-05-05 19:02 | 47.95948 | 8.80256 | 39859 ft | 498 kts | 26° |
| 2026-05-05 19:02 | 48.02216 | 8.84801 | 39863 ft | 495 kts | 26° |
| 2026-05-05 19:03 | 48.08556 | 8.89411 | 39861 ft | 498 kts | 26° |
| 2026-05-05 19:03 | 48.11729 | 8.91723 | 39439 ft | 498 kts | 26° |
| 2026-05-05 19:03 | 48.14924 | 8.94013 | 38198 ft | 503 kts | 22° |
| 2026-05-05 19:04 | 48.18177 | 8.95500 | 37180 ft | 484 kts | 8° |
| 2026-05-05 19:04 | 48.21471 | 8.96050 | 36974 ft | 460 kts | 4° |
| 2026-05-05 19:04 | 48.24707 | 8.96544 | 36287 ft | 461 kts | 5° |
| 2026-05-05 19:04 | 48.27893 | 8.97028 | 35668 ft | 463 kts | 4° |
| 2026-05-05 19:05 | 48.31083 | 8.97513 | 35076 ft | 463 kts | 4° |
| 2026-05-05 19:05 | 48.34287 | 8.97999 | 34478 ft | 463 kts | 5° |
| 2026-05-05 19:05 | 48.37485 | 8.98483 | 33863 ft | 464 kts | 5° |
| 2026-05-05 19:05 | 48.40739 | 8.98977 | 33203 ft | 465 kts | 5° |
| 2026-05-05 19:06 | 48.43951 | 8.99468 | 32454 ft | 468 kts | 5° |
| 2026-05-05 19:06 | 48.47203 | 8.99961 | 31671 ft | 471 kts | 6° |
| 2026-05-05 19:06 | 48.50443 | 9.00457 | 30891 ft | 472 kts | 6° |
| 2026-05-05 19:06 | 48.53714 | 9.00959 | 30076 ft | 473 kts | 6° |
| 2026-05-05 19:07 | 48.57032 | 9.01469 | 29190 ft | 474 kts | 6° |
| 2026-05-05 19:07 | 48.59282 | 9.01812 | 28622 ft | 473 kts | 6° |
| 2026-05-05 19:07 | 48.63881 | 9.02574 | 27598 ft | 468 kts | 9° |
| 2026-05-05 19:07 | 48.67357 | 9.03428 | 26808 ft | 465 kts | 9° |
| 2026-05-05 19:08 | 48.70883 | 9.04274 | 26001 ft | 461 kts | 9° |
| 2026-05-05 19:08 | 48.74236 | 9.05077 | 25410 ft | 453 kts | 9° |
| 2026-05-05 19:08 | 48.77381 | 9.05827 | 24973 ft | 443 kts | 9° |
| 2026-05-05 19:08 | 48.80423 | 9.06554 | 24745 ft | 429 kts | 9° |
| 2026-05-05 19:09 | 48.83402 | 9.07268 | 24109 ft | 427 kts | 9° |
| 2026-05-05 19:09 | 48.86313 | 9.07966 | 23551 ft | 422 kts | 9° |
| 2026-05-05 19:09 | 48.89159 | 9.08596 | 22997 ft | 419 kts | 6° |
| 2026-05-05 19:09 | 48.92027 | 9.08981 | 22445 ft | 415 kts | 5° |
| 2026-05-05 19:10 | 48.94879 | 9.09380 | 21904 ft | 412 kts | 5° |
| 2026-05-05 19:10 | 48.97690 | 9.09777 | 21379 ft | 408 kts | 5° |
| 2026-05-05 19:10 | 49.00498 | 9.10177 | 20877 ft | 404 kts | 5° |
| 2026-05-05 19:10 | 49.03276 | 9.10572 | 20386 ft | 400 kts | 5° |
| 2026-05-05 19:11 | 49.06045 | 9.10967 | 19886 ft | 397 kts | 4° |
| 2026-05-05 19:11 | 49.08748 | 9.11351 | 19389 ft | 394 kts | 4° |
| 2026-05-05 19:11 | 49.11463 | 9.11739 | 18891 ft | 390 kts | 4° |
| 2026-05-05 19:11 | 49.14104 | 9.12116 | 18416 ft | 387 kts | 4° |
| 2026-05-05 19:12 | 49.16760 | 9.12496 | 17936 ft | 384 kts | 4° |
| 2026-05-05 19:12 | 49.19421 | 9.12878 | 17457 ft | 380 kts | 4° |
| 2026-05-05 19:12 | 49.21956 | 9.13241 | 16996 ft | 377 kts | 4° |
| 2026-05-05 19:12 | 49.24549 | 9.13614 | 16531 ft | 374 kts | 4° |
| 2026-05-05 19:13 | 49.27123 | 9.13983 | 16062 ft | 372 kts | 3° |
| 2026-05-05 19:13 | 49.29671 | 9.14601 | 15667 ft | 368 kts | 11° |
| 2026-05-05 19:13 | 49.32155 | 9.15491 | 15105 ft | 369 kts | 11° |
| 2026-05-05 19:13 | 49.34660 | 9.16381 | 14580 ft | 369 kts | 11° |
| 2026-05-05 19:14 | 49.37138 | 9.17260 | 14067 ft | 368 kts | 11° |
| 2026-05-05 19:14 | 49.39622 | 9.18141 | 13549 ft | 367 kts | 11° |
| 2026-05-05 19:14 | 49.42087 | 9.19013 | 13041 ft | 366 kts | 11° |
| 2026-05-05 19:14 | 49.44563 | 9.19894 | 12524 ft | 365 kts | 11° |
| 2026-05-05 19:15 | 49.47012 | 9.20767 | 12021 ft | 364 kts | 11° |
| 2026-05-05 19:15 | 49.49471 | 9.21640 | 11516 ft | 362 kts | 11° |
| 2026-05-05 19:15 | 49.51899 | 9.22504 | 11018 ft | 361 kts | 11° |
| 2026-05-05 19:15 | 49.54309 | 9.23364 | 10794 ft | 350 kts | 11° |
| 2026-05-05 19:16 | 49.56597 | 9.24184 | 10837 ft | 333 kts | 10° |
| 2026-05-05 19:16 | 49.58846 | 9.24987 | 10571 ft | 333 kts | 10° |
| 2026-05-05 19:16 | 49.61122 | 9.25800 | 10184 ft | 337 kts | 11° |
| 2026-05-05 19:16 | 49.63323 | 9.26591 | 10140 ft | 327 kts | 10° |
| 2026-05-05 19:17 | 49.65487 | 9.27503 | 10012 ft | 322 kts | 21° |
| 2026-05-05 19:17 | 49.67395 | 9.29253 | 9828 ft | 318 kts | 27° |
| 2026-05-05 19:17 | 49.69416 | 9.30333 | 9665 ft | 308 kts | 4° |
| 2026-05-05 19:17 | 49.71460 | 9.30191 | 9583 ft | 295 kts | 347° |
| 2026-05-05 19:18 | 49.73410 | 9.29531 | 9690 ft | 280 kts | 341° |
| 2026-05-05 19:18 | 49.75271 | 9.28810 | 9711 ft | 270 kts | 341° |
| 2026-05-05 19:18 | 49.77047 | 9.28076 | 9600 ft | 264 kts | 341° |
| 2026-05-05 19:18 | 49.78793 | 9.27327 | 9480 ft | 263 kts | 340° |
| 2026-05-05 19:19 | 49.80605 | 9.26524 | 9359 ft | 268 kts | 340° |
| 2026-05-05 19:19 | 49.82353 | 9.25728 | 9231 ft | 264 kts | 340° |
| 2026-05-05 19:19 | 49.84106 | 9.24926 | 9112 ft | 261 kts | 340° |
| 2026-05-05 19:19 | 49.85836 | 9.24118 | 8999 ft | 260 kts | 339° |
| 2026-05-05 19:20 | 49.87572 | 9.23273 | 8892 ft | 259 kts | 338° |
| 2026-05-05 19:20 | 49.89263 | 9.22397 | 8792 ft | 258 kts | 337° |
| 2026-05-05 19:20 | 49.90943 | 9.21528 | 8749 ft | 258 kts | 343° |
| 2026-05-05 19:20 | 49.92674 | 9.20932 | 8984 ft | 260 kts | 344° |
| 2026-05-05 19:21 | 49.94413 | 9.20330 | 9079 ft | 262 kts | 344° |
| 2026-05-05 19:21 | 49.96174 | 9.19727 | 9113 ft | 262 kts | 343° |
| 2026-05-05 19:21 | 49.97946 | 9.19125 | 9144 ft | 262 kts | 344° |
| 2026-05-05 19:21 | 49.99669 | 9.18531 | 9154 ft | 262 kts | 344° |
| 2026-05-05 19:22 | 50.01430 | 9.17914 | 9165 ft | 262 kts | 344° |
| 2026-05-05 19:22 | 50.03196 | 9.17300 | 9173 ft | 262 kts | 344° |
| 2026-05-05 19:22 | 50.04982 | 9.16679 | 9174 ft | 262 kts | 344° |
| 2026-05-05 19:22 | 50.06752 | 9.16064 | 9176 ft | 261 kts | 344° |
| 2026-05-05 19:23 | 50.08514 | 9.15455 | 9138 ft | 263 kts | 344° |
| 2026-05-05 19:23 | 50.10321 | 9.14825 | 8708 ft | 266 kts | 344° |
| 2026-05-05 19:23 | 50.12117 | 9.14189 | 8210 ft | 267 kts | 344° |
| 2026-05-05 19:23 | 50.13918 | 9.13542 | 7657 ft | 269 kts | 344° |
| 2026-05-05 19:24 | 50.15750 | 9.12846 | 7112 ft | 269 kts | 340° |
| 2026-05-05 19:24 | 50.17339 | 9.11385 | 6551 ft | 263 kts | 310° |
| 2026-05-05 19:24 | 50.18219 | 9.09029 | 5962 ft | 247 kts | 283° |
| 2026-05-05 19:24 | 50.18321 | 9.06472 | 5430 ft | 235 kts | 258° |
| 2026-05-05 19:25 | 50.17715 | 9.04173 | 4898 ft | 228 kts | 236° |
| 2026-05-05 19:25 | 50.16672 | 9.02376 | 4397 ft | 223 kts | 224° |
| 2026-05-05 19:25 | 50.15572 | 9.00798 | 4044 ft | 216 kts | 224° |
| 2026-05-05 19:25 | 50.14451 | 8.99220 | 3843 ft | 210 kts | 224° |
| 2026-05-05 19:26 | 50.13544 | 8.97638 | 3866 ft | 188 kts | 240° |
| 2026-05-05 19:26 | 50.12957 | 8.95888 | 3924 ft | 176 kts | 246° |
| 2026-05-05 19:26 | 50.12506 | 8.94176 | 4060 ft | 167 kts | 249° |
| 2026-05-05 19:26 | 50.12058 | 8.92440 | 4207 ft | 180 kts | 249° |
| 2026-05-05 19:27 | 50.11568 | 8.90570 | 4431 ft | 191 kts | 248° |
| 2026-05-05 19:27 | 50.11044 | 8.88652 | 4494 ft | 202 kts | 246° |
| 2026-05-05 19:27 | 50.10440 | 8.86519 | 4275 ft | 218 kts | 246° |
| 2026-05-05 19:27 | 50.09826 | 8.84452 | 3873 ft | 209 kts | 246° |
| 2026-05-05 19:28 | 50.09282 | 8.82380 | 3386 ft | 206 kts | 251° |
| 2026-05-05 19:28 | 50.08868 | 8.80288 | 3031 ft | 198 kts | 258° |
| 2026-05-05 19:28 | 50.08646 | 8.78252 | 2814 ft | 183 kts | 262° |
| 2026-05-05 19:28 | 50.08494 | 8.76353 | 2672 ft | 174 kts | 263° |
| 2026-05-05 19:29 | 50.08260 | 8.74615 | 2625 ft | 161 kts | 253° |
| 2026-05-05 19:29 | 50.07862 | 8.72988 | 2392 ft | 161 kts | 249° |
| 2026-05-05 19:29 | 50.07418 | 8.71407 | 2176 ft | 159 kts | 252° |
| 2026-05-05 19:29 | 50.07084 | 8.69789 | 1949 ft | 160 kts | 253° |
| 2026-05-05 19:30 | 50.06725 | 8.68206 | 1714 ft | 160 kts | 251° |
| 2026-05-05 19:30 | 50.06366 | 8.66659 | 1471 ft | 156 kts | 253° |
| 2026-05-05 19:30 | 50.06060 | 8.65188 | 1238 ft | 142 kts | 251° |
| 2026-05-05 19:30 | 50.05740 | 8.63843 | 968 ft | 134 kts | 250° |
| 2026-05-05 19:31 | 50.05426 | 8.62549 | 794 ft | 138 kts | 250° |
| 2026-05-05 19:31 | 50.05112 | 8.61212 | 710 ft | 142 kts | 250° |
| 2026-05-05 19:31 | 50.04801 | 8.59938 | 607 ft | 143 kts | 252° |
| 2026-05-05 19:31 | 50.04506 | 8.58636 | 427 ft | 141 kts | 250° |
| 2026-05-05 19:32 | 50.04218 | 8.57445 | 367 ft | 96 kts | 244° |
| 2026-05-05 19:32 | 50.04085 | 8.56906 | 362 ft | 23 kts | 249° |
| 2026-05-05 19:32 | 50.04062 | 8.56763 | 360 ft | 17 kts | 284° |
| 2026-05-05 19:32 | 50.04103 | 8.56726 | 361 ft | 4 kts | 15° |
| 2026-05-05 19:33 | 50.04133 | 8.56743 | 362 ft | 4 kts | 23° |
| 2026-05-05 19:33 | 50.04160 | 8.56760 | 363 ft | 3 kts | 19° |
| 2026-05-05 19:33 | 50.04164 | 8.56762 | 364 ft | 0 kts | 19° |
| 2026-05-05 19:35 | 50.04220 | 8.56785 | 366 ft | 7 kts | 18° |
| 2026-05-05 19:35 | 50.04253 | 8.56827 | 368 ft | 6 kts | 57° |
| 2026-05-05 19:35 | 50.04271 | 8.56883 | 370 ft | 6 kts | 66° |
| 2026-05-05 19:35 | 50.04287 | 8.56949 | 371 ft | 8 kts | 71° |
| 2026-05-05 19:36 | 50.04308 | 8.57033 | 371 ft | 10 kts | 69° |
| 2026-05-05 19:36 | 50.04333 | 8.57136 | 372 ft | 12 kts | 70° |
| 2026-05-05 19:36 | 50.04368 | 8.57285 | 372 ft | 19 kts | 70° |
| 2026-05-05 19:36 | 50.04413 | 8.57473 | 371 ft | 21 kts | 70° |
| 2026-05-05 19:37 | 50.04459 | 8.57667 | 371 ft | 21 kts | 70° |
| 2026-05-05 19:37 | 50.04501 | 8.57849 | 375 ft | 18 kts | 71° |
| 2026-05-05 19:37 | 50.04531 | 8.57981 | 378 ft | 11 kts | 65° |
| 2026-05-05 19:37 | 50.04580 | 8.58028 | 378 ft | 9 kts | 348° |
| 2026-05-05 19:38 | 50.04635 | 8.58001 | 378 ft | 9 kts | 340° |
| 2026-05-05 19:38 | 50.04690 | 8.57969 | 378 ft | 9 kts | 340° |
| 2026-05-05 19:38 | 50.04742 | 8.57939 | 378 ft | 9 kts | 340° |
| 2026-05-05 19:38 | 50.04802 | 8.57904 | 379 ft | 10 kts | 337° |
| 2026-05-05 19:39 | 50.04845 | 8.57833 | 378 ft | 10 kts | 298° |
| 2026-05-05 19:39 | 50.04874 | 8.57771 | 379 ft | 4 kts | 329° |
| 2026-05-05 19:39 | 50.04896 | 8.57761 | 379 ft | 2 kts | 355° |
| 2026-05-05 19:39 | 50.04908 | 8.57766 | 380 ft | 1 kts | 20° |
| 2026-05-05 19:40 | 50.04915 | 8.57770 | 380 ft | 1 kts | 19° |
| 2026-05-05 19:40 | 50.04944 | 8.57787 | 380 ft | 2 kts | 22° |